Time;durP1;ratioP1;P1;durP2;ratioP2;P2;SDS_P1;SDS_P2;PMS_P1;PMS_P2;Temp;Humidity;BMP_temperature;BMP_pressure;BME280_temperature;BME280_humidity;BME280_pressure;Samples;Min_cycle;Max_cycle;Signal;HPM_P1;HPM_P2
2022/11/20 00:01:23;;;;;;;9.88;4.62;;;;;;;6.54;97.29;98675.57;1741339;81;21030;-77
2022/11/20 00:03:52;;;;;;;7.37;4.40;;;;;;;6.57;97.53;98660.48;1741266;81;21125;-77
2022/11/20 00:06:19;;;;;;;6.85;3.65;;;;;;;6.59;97.34;98664.34;1741415;81;21141;-78
2022/11/20 00:08:47;;;;;;;8.50;3.92;;;;;;;6.58;97.18;98657.02;1741448;81;21093;-77
2022/11/20 00:11:20;;;;;;;6.65;3.50;;;;;;;6.61;97.35;98640.63;1741532;81;21124;-77
2022/11/20 00:13:50;;;;;;;7.65;4.08;;;;;;;6.61;98.03;98642.77;1743110;81;21018;-76
2022/11/20 00:16:20;;;;;;;8.20;4.15;;;;;;;6.64;97.92;98653.48;1742653;81;21467;-77
2022/11/20 00:18:47;;;;;;;9.03;4.83;;;;;;;6.68;97.51;98651.27;1714987;81;20974;-77
2022/11/20 00:21:18;;;;;;;8.15;4.92;;;;;;;6.68;97.46;98648.23;1741376;81;21596;-75
2022/11/20 00:23:45;;;;;;;8.28;5.28;;;;;;;6.63;97.85;98651.80;1740038;81;20975;-76
2022/11/20 00:26:17;;;;;;;8.50;4.80;;;;;;;6.63;97.34;98651.80;1739858;81;21023;-77
2022/11/20 00:28:51;;;;;;;9.53;4.60;;;;;;;6.60;97.04;98651.83;1729284;81;20992;-77
2022/11/20 00:31:18;;;;;;;;;;;;;;;6.57;97.64;98642.41;1742074;81;21045;-78
2022/11/20 00:33:45;;;;;;;9.70;4.62;;;;;;;6.55;97.97;98634.68;1738923;81;20151;-77
2022/11/20 00:36:17;;;;;;;8.68;4.60;;;;;;;6.53;97.67;98650.64;1738319;81;20966;-77
2022/11/20 00:38:44;;;;;;;11.20;4.62;;;;;;;6.49;97.41;98639.10;1751027;81;21068;-77
2022/11/20 00:41:14;;;;;;;8.98;4.72;;;;;;;6.46;96.63;98633.52;1751073;81;21000;-76
2022/11/20 00:43:41;;;;;;;7.35;3.65;;;;;;;6.42;97.00;98630.58;1736881;81;21466;-77
2022/11/20 00:46:15;;;;;;;6.12;3.47;;;;;;;6.40;96.79;98645.24;1737559;81;21031;-78
2022/11/20 00:48:42;;;;;;;5.42;3.15;;;;;;;6.40;97.24;98652.14;1726001;81;21058;-77
2022/11/20 00:51:12;;;;;;;7.83;4.30;;;;;;;6.40;97.54;98656.86;1738396;81;20994;-77
2022/11/20 00:53:39;;;;;;;11.15;3.58;;;;;;;6.45;97.97;98653.78;1738561;81;21507;-77
2022/11/20 00:56:10;;;;;;;5.25;3.40;;;;;;;6.45;98.43;98653.78;1738367;81;21038;-77
2022/11/20 00:58:42;;;;;;;4.97;2.87;;;;;;;6.48;97.16;98661.47;1709041;82;21050;-77
2022/11/20 01:01:13;;;;;;;6.78;3.92;;;;;;;6.51;97.54;98659.30;1738670;81;21909;-77
2022/11/20 01:03:43;;;;;;;6.92;2.98;;;;;;;6.51;97.74;98672.20;1744923;81;20992;-75
2022/11/20 01:06:15;;;;;;;9.28;4.03;;;;;;;6.56;97.88;98666.52;1747497;81;21054;-77
2022/11/20 01:08:43;;;;;;;3.95;2.40;;;;;;;6.58;97.75;98660.89;1740728;81;20957;-76
2022/11/20 01:11:14;;;;;;;3.90;1.70;;;;;;;6.61;97.40;98649.67;1738349;81;21034;-77
2022/11/20 01:13:42;;;;;;;2.47;1.37;;;;;;;6.64;96.31;98650.45;1737927;81;21318;-77
2022/11/20 01:16:25;;;;;;;4.55;1.20;;;;;;;6.56;95.62;98654.89;1740409;81;20943;-77
2022/11/20 01:18:54;;;;;;;1.50;0.85;;;;;;;6.54;95.58;98649.75;1740347;81;21009;-78
2022/11/20 01:21:27;;;;;;;2.50;0.93;;;;;;;6.48;94.04;98645.97;1741449;81;21050;-77
2022/11/20 01:23:53;;;;;;;1.42;1.10;;;;;;;6.36;93.33;98639.27;1742780;81;21030;-78
2022/11/20 01:26:25;;;;;;;0.80;0.70;;;;;;;6.30;93.35;98641.09;1742968;81;22277;-78
2022/11/20 01:28:52;;;;;;;1.42;0.78;;;;;;;6.20;92.33;98631.34;1741117;81;21030;-77
2022/11/20 01:31:31;;;;;;;0.33;0.33;;;;;;;6.10;91.53;98638.37;1741684;81;21022;-77
2022/11/20 01:34:02;;;;;;;0.72;0.65;;;;;;;6.07;92.19;98631.09;1741261;81;21533;-76
2022/11/20 01:36:32;;;;;;;0.70;0.70;;;;;;;6.01;92.88;98617.00;1741927;81;21062;-75
2022/11/20 01:39:03;;;;;;;2.10;0.70;;;;;;;6.01;92.67;98622.16;1741460;81;21034;-77
2022/11/20 01:44:21;;;;;;;2.33;1.10;;;;;;;5.97;92.92;98604.60;1741919;81;21075;-78
2022/11/20 01:47:04;;;;;;;1.37;0.93;;;;;;;5.90;93.22;98602.94;1743031;81;21049;-76
2022/11/20 01:49:54;;;;;;;2.85;1.27;;;;;;;5.87;92.97;98597.80;1742881;81;21455;-77
2022/11/20 01:52:29;;;;;;;2.90;1.07;;;;;;;5.85;93.45;98606.00;1741723;81;21049;-77
2022/11/20 01:55:07;;;;;;;1.10;1.00;;;;;;;5.84;93.37;98613.34;1723894;81;21014;-77
2022/11/20 01:57:35;;;;;;;6.80;2.37;;;;;;;5.84;93.16;98613.34;1741909;81;21075;-77
2022/11/20 02:00:10;;;;;;;7.33;3.05;;;;;;;5.82;93.58;98606.06;1718049;81;21044;-78
2022/11/20 02:02:43;;;;;;;6.92;2.85;;;;;;;5.80;93.25;98594.92;1742795;81;21030;-77
2022/11/20 02:05:33;;;;;;;6.40;2.92;;;;;;;5.78;93.96;98589.33;1743093;81;20987;-78
2022/11/20 02:08:00;;;;;;;5.10;2.25;;;;;;;5.80;95.24;98572.55;1741541;81;21030;-77
2022/11/20 02:10:28;;;;;;;3.22;1.70;;;;;;;5.74;93.99;98567.03;1741621;81;21490;-78
2022/11/20 02:15:41;;;;;;;10.28;4.75;;;;;;;5.70;94.04;98576.98;1741777;81;21612;-78
2022/11/20 02:18:09;;;;;;;4.17;1.70;;;;;;;5.68;94.03;98567.56;1741536;81;21526;-77
2022/11/20 02:20:36;;;;;;;4.03;1.75;;;;;;;5.65;94.03;98579.20;1741589;81;21173;-77
2022/11/20 02:23:32;;;;;;;5.42;2.00;;;;;;;5.66;93.70;98580.47;1738857;81;21022;-77
2022/11/20 02:26:03;;;;;;;2.67;1.22;;;;;;;5.68;94.57;98572.28;1754729;81;21014;-76
2022/11/20 02:28:30;;;;;;;2.87;1.70;;;;;;;5.71;93.90;98568.80;1739114;81;20983;-77
2022/11/20 02:30:56;;;;;;;6.22;1.60;;;;;;;5.69;94.54;98554.66;1756550;81;20994;-78
2022/11/20 02:33:23;;;;;;;4.50;1.75;;;;;;;5.75;94.84;98554.56;1738495;81;21082;-78
2022/11/20 02:35:49;;;;;;;6.60;2.35;;;;;;;5.67;95.04;98540.05;1738770;81;21482;-77
2022/11/20 02:38:16;;;;;;;1.50;1.07;;;;;;;5.76;95.18;98544.64;1738193;81;21023;-77
2022/11/20 02:40:43;;;;;;;1.35;0.98;;;;;;;5.81;95.07;98525.67;1738773;81;21042;-77
2022/11/20 02:43:10;;;;;;;3.10;1.10;;;;;;;5.81;95.29;98519.22;1738258;81;21090;-78
2022/11/20 02:45:37;;;;;;;3.00;1.22;;;;;;;5.88;95.24;98513.95;1738761;81;21010;-77
2022/11/20 02:48:05;;;;;;;2.75;0.90;;;;;;;5.86;95.06;98507.11;1738491;81;21065;-77
2022/11/20 02:50:32;;;;;;;2.55;1.32;;;;;;;5.89;94.99;98507.05;1738683;81;21524;-78
2022/11/20 02:52:58;;;;;;;0.85;0.80;;;;;;;5.89;95.00;98492.86;1738530;81;21061;-78
2022/11/20 02:55:25;;;;;;;1.70;1.02;;;;;;;5.86;94.89;98501.52;1738522;81;22176;-78
2022/11/20 02:57:51;;;;;;;3.33;1.00;;;;;;;5.88;95.08;98502.34;1738406;81;21046;-77
2022/11/20 03:00:18;;;;;;;2.40;0.80;;;;;;;5.88;94.82;98504.08;1738550;82;21058;-78
2022/11/20 03:02:44;;;;;;;1.30;0.93;;;;;;;5.88;94.79;98499.76;1738357;81;21018;-77
2022/11/20 03:05:11;;;;;;;1.35;0.80;;;;;;;5.86;94.80;98505.38;1738693;81;20987;-78
2022/11/20 03:07:37;;;;;;;0.93;0.80;;;;;;;5.87;94.42;98506.22;1738509;81;21018;-78
2022/11/20 03:10:06;;;;;;;1.62;0.90;;;;;;;5.89;94.71;98508.34;1743873;81;21084;-78
2022/11/20 03:12:32;;;;;;;0.80;0.80;;;;;;;5.87;94.63;98513.55;1740008;81;21431;-78
2022/11/20 03:14:58;;;;;;;0.82;0.70;;;;;;;5.85;94.28;98517.88;1739451;81;21038;-77
2022/11/20 03:17:25;;;;;;;2.17;1.22;;;;;;;5.85;94.72;98507.98;1740352;81;21022;-77
2022/11/20 03:19:51;;;;;;;2.95;1.32;;;;;;;5.85;93.34;98504.11;1738728;81;21633;-77
2022/11/20 03:22:18;;;;;;;2.95;1.10;;;;;;;5.80;93.20;98497.73;1738700;81;21034;-78
2022/11/20 03:24:44;;;;;;;1.75;1.17;;;;;;;5.73;93.67;98495.70;1738836;81;21022;-78
2022/11/20 03:27:10;;;;;;;1.85;0.95;;;;;;;5.67;93.95;98485.48;1739041;81;21058;-78
2022/11/20 03:29:37;;;;;;;4.42;1.62;;;;;;;5.63;94.39;98482.53;1738793;81;21585;-77
2022/11/20 03:32:04;;;;;;;1.75;1.10;;;;;;;5.62;94.03;98483.39;1738825;81;21007;-78
2022/11/20 03:34:30;;;;;;;3.22;0.90;;;;;;;5.60;94.38;98473.98;1738911;81;21570;-78
2022/11/20 03:36:57;;;;;;;1.12;0.88;;;;;;;5.63;94.49;98474.80;1739230;81;21029;-77
2022/11/20 03:39:23;;;;;;;1.25;0.85;;;;;;;5.67;94.15;98472.59;1755336;81;21011;-78
2022/11/20 03:41:50;;;;;;;2.35;1.17;;;;;;;5.63;94.30;98473.52;1739363;81;21586;-77
2022/11/20 03:44:16;;;;;;;0.98;0.90;;;;;;;5.65;94.40;98473.46;1739607;81;20991;-78
2022/11/20 03:46:43;;;;;;;1.20;1.00;;;;;;;5.68;94.79;98456.22;1738906;81;21085;-78
2022/11/20 03:49:09;;;;;;;2.37;1.15;;;;;;;5.73;95.21;98422.61;1710151;82;21469;-78
2022/11/20 03:51:36;;;;;;;2.15;1.10;;;;;;;5.77;95.24;98409.66;1738731;81;21029;-78
2022/11/20 03:54:07;;;;;;;5.45;2.20;;;;;;;5.84;95.45;98453.41;1739231;81;21034;-78
2022/11/20 03:56:37;;;;;;;1.92;1.30;;;;;;;5.86;95.06;98449.07;1739917;81;20951;-77
2022/11/20 03:59:05;;;;;;;2.15;1.30;;;;;;;5.85;95.10;98443.06;1739710;81;22172;-77
2022/11/20 04:01:35;;;;;;;3.80;1.47;;;;;;;5.89;95.18;98433.53;1739933;81;21894;-78
2022/11/20 04:04:02;;;;;;;2.22;1.12;;;;;;;5.91;95.04;98429.22;1740208;81;21026;-78
2022/11/20 04:06:36;;;;;;;5.50;1.37;;;;;;;5.92;95.06;98425.30;1740191;81;20975;-78
2022/11/20 04:09:05;;;;;;;3.72;1.50;;;;;;;5.95;95.10;98406.39;1739479;81;21022;-80
2022/11/20 04:11:35;;;;;;;2.35;1.40;;;;;;;5.95;94.90;98416.72;1739661;81;21018;-77
2022/11/20 04:14:05;;;;;;;4.12;1.72;;;;;;;5.96;94.84;98428.27;1739724;81;21095;-76
2022/11/20 04:16:35;;;;;;;3.62;1.60;;;;;;;5.96;94.63;98416.66;1739754;81;20971;-76
2022/11/20 04:19:06;;;;;;;4.55;2.33;;;;;;;5.91;94.67;98391.37;1739683;81;21025;-75
2022/11/20 04:21:33;;;;;;;5.17;2.22;;;;;;;5.87;95.06;98392.72;1738636;81;21073;-77
2022/11/20 04:23:59;;;;;;;3.72;1.80;;;;;;;5.85;94.61;98390.19;1738887;81;21026;-77
2022/11/20 04:26:28;;;;;;;2.12;1.30;;;;;;;5.83;94.72;98389.78;1739186;81;20998;-78
2022/11/20 04:28:55;;;;;;;2.22;1.32;;;;;;;5.80;94.58;98376.95;1740072;81;20989;-75
2022/11/20 04:31:26;;;;;;;1.65;1.07;;;;;;;5.76;94.64;98364.09;1739997;81;20966;-75
2022/11/20 04:33:52;;;;;;;2.05;1.32;;;;;;;5.74;94.13;98375.32;1740179;81;20986;-76
2022/11/20 04:36:26;;;;;;;2.25;1.25;;;;;;;5.69;94.44;98369.37;1737515;81;21010;-76
2022/11/20 04:38:58;;;;;;;2.40;1.20;;;;;;;5.67;94.79;98359.11;1738661;81;21030;-75
2022/11/20 04:41:28;;;;;;;1.87;1.10;;;;;;;5.66;94.39;98364.29;1739283;81;21062;-77
2022/11/20 04:44:02;;;;;;;2.10;1.40;;;;;;;5.66;95.16;98370.73;1739794;81;20986;-77
2022/11/20 04:46:28;;;;;;;1.87;1.20;;;;;;;5.68;94.41;98376.72;1739038;81;21022;-79
2022/11/20 04:48:55;;;;;;;1.37;0.90;;;;;;;5.68;94.74;98373.69;1738600;81;21902;-77
2022/11/20 04:51:22;;;;;;;2.02;1.10;;;;;;;5.72;95.39;98374.05;1739075;81;21006;-78
2022/11/20 04:53:48;;;;;;;1.65;1.12;;;;;;;5.77;94.93;98373.55;1738438;81;21041;-78
2022/11/20 04:56:15;;;;;;;2.08;1.20;;;;;;;5.82;95.31;98372.17;1738783;81;21010;-77
2022/11/20 04:58:42;;;;;;;2.10;1.40;;;;;;;5.88;95.16;98366.05;1738274;81;21111;-78
2022/11/20 05:01:16;;;;;;;3.20;1.65;;;;;;;5.89;95.10;98367.73;1738782;81;21011;-77
2022/11/20 05:03:43;;;;;;;4.65;1.10;;;;;;;5.88;95.18;98359.61;1737890;81;21026;-78
2022/11/20 05:06:13;;;;;;;2.17;1.40;;;;;;;5.86;95.16;98346.73;1744334;81;21032;-76
2022/11/20 05:08:41;;;;;;;1.92;1.20;;;;;;;5.90;95.18;98348.81;1739367;81;21065;-78
2022/11/20 05:11:11;;;;;;;2.15;1.27;;;;;;;5.87;95.17;98352.73;1738352;81;21034;-77
2022/11/20 05:13:40;;;;;;;2.50;1.35;;;;;;;5.88;95.26;98351.87;1710157;82;21788;-77
2022/11/20 05:16:13;;;;;;;5.05;2.42;;;;;;;5.91;95.53;98339.77;1739506;81;21005;-77
2022/11/20 05:18:40;;;;;;;4.05;1.75;;;;;;;5.93;95.50;98338.01;1739757;81;21010;-78
2022/11/20 05:21:08;;;;;;;3.08;1.70;;;;;;;5.95;95.29;98342.73;1738121;81;21394;-78
2022/11/20 05:23:36;;;;;;;6.90;1.98;;;;;;;5.95;95.28;98340.60;1720788;82;21006;-77
2022/11/20 05:26:03;;;;;;;3.98;2.10;;;;;;;5.95;95.30;98346.61;1724779;82;21017;-75
2022/11/20 05:28:31;;;;;;;3.83;1.80;;;;;;;5.96;95.20;98348.29;1750660;81;20960;-75
2022/11/20 05:31:10;;;;;;;4.15;2.30;;;;;;;5.97;95.71;98346.58;1744031;81;21390;-76
2022/11/20 05:33:43;;;;;;;4.90;2.50;;;;;;;6.00;95.82;98343.92;1705653;83;21002;-79
2022/11/20 05:36:13;;;;;;;4.10;2.27;;;;;;;6.03;95.62;98344.30;1710425;83;21062;-79
2022/11/20 05:38:40;;;;;;;3.85;1.95;;;;;;;6.05;95.84;98361.48;1711812;83;20939;-78
2022/11/20 05:41:13;;;;;;;2.87;1.80;;;;;;;6.06;95.80;98365.74;1711836;83;21002;-78
2022/11/20 05:43:42;;;;;;;4.67;2.30;;;;;;;6.05;95.19;98367.05;1742760;81;21024;-78
2022/11/20 05:46:12;;;;;;;6.37;2.05;;;;;;;6.00;94.87;98364.57;1751776;81;21523;-76
2022/11/20 05:48:41;;;;;;;6.87;2.20;;;;;;;5.98;95.02;98372.33;1726439;81;21066;-76
2022/11/20 05:51:11;;;;;;;4.15;2.02;;;;;;;5.98;95.09;98366.33;1739686;82;21039;-78
2022/11/20 05:53:38;;;;;;;3.92;1.98;;;;;;;5.96;95.18;98370.66;1711720;83;20975;-77
2022/11/20 05:56:13;;;;;;;4.55;2.30;;;;;;;5.95;95.67;98369.83;1712153;83;20982;-78
2022/11/20 05:58:40;;;;;;;4.08;2.05;;;;;;;5.96;95.21;98361.64;1691396;84;21494;-78
2022/11/20 06:01:14;;;;;;;3.98;2.08;;;;;;;5.91;94.96;98354.41;1667674;84;21466;-78
2022/11/20 06:03:43;;;;;;;6.40;2.40;;;;;;;5.89;95.00;98363.88;1710166;83;22198;-78
2022/11/20 06:06:10;;;;;;;7.00;2.52;;;;;;;5.91;95.69;98361.70;1710127;83;21046;-78
2022/11/20 06:08:36;;;;;;;9.80;4.08;;;;;;;5.94;95.87;98369.36;1730053;81;21031;-77
2022/11/20 06:11:09;;;;;;;11.75;3.50;;;;;;;6.00;95.96;98380.05;1710278;83;21015;-78
2022/11/20 06:13:36;;;;;;;7.23;2.93;;;;;;;6.06;96.09;98365.74;1711915;83;21815;-78
2022/11/20 06:16:03;;;;;;;5.10;2.05;;;;;;;6.13;96.09;98369.08;1711988;83;20995;-77
2022/11/20 06:18:30;;;;;;;8.18;2.40;;;;;;;6.18;95.77;98371.95;1710203;83;22169;-76
2022/11/20 06:21:09;;;;;;;8.55;2.17;;;;;;;6.21;95.50;98368.91;1708938;83;21078;-78
2022/11/20 06:23:37;;;;;;;4.55;2.33;;;;;;;6.25;95.63;98375.30;1730464;81;21034;-76
2022/11/20 06:26:11;;;;;;;4.28;2.25;;;;;;;6.30;95.21;98373.91;1743004;81;21030;-77
2022/11/20 06:28:38;;;;;;;2.95;1.77;;;;;;;6.33;95.36;98379.02;1741051;81;21030;-77
2022/11/20 06:31:06;;;;;;;3.90;2.20;;;;;;;6.33;95.34;98382.45;1742007;81;21018;-77
2022/11/20 06:33:34;;;;;;;3.17;1.67;;;;;;;6.38;95.23;98389.64;1741470;81;21015;-76
2022/11/20 06:36:01;;;;;;;6.85;2.55;;;;;;;6.40;95.19;98384.91;1741737;81;21022;-76
2022/11/20 06:38:28;;;;;;;9.08;4.00;;;;;;;6.48;95.45;98390.32;1742631;81;21001;-76
2022/11/20 06:40:55;;;;;;;8.18;3.70;;;;;;;6.53;94.86;98401.42;1742913;81;21391;-76
2022/11/20 06:43:23;;;;;;;8.68;3.52;;;;;;;6.57;94.28;98412.55;1743011;81;21068;-78
2022/11/20 06:45:54;;;;;;;5.87;2.92;;;;;;;6.55;94.30;98413.02;1741936;81;21023;-79
2022/11/20 06:48:21;;;;;;;4.90;2.98;;;;;;;6.50;94.22;98409.22;1743887;81;21561;-79
2022/11/20 06:50:47;;;;;;;5.97;3.60;;;;;;;6.54;94.45;98404.40;1741692;81;21097;-78
2022/11/20 06:53:14;;;;;;;4.67;2.15;;;;;;;6.56;93.96;98414.28;1741733;81;21022;-78
2022/11/20 06:55:46;;;;;;;3.85;2.27;;;;;;;6.54;93.52;98400.97;1741544;81;22276;-79
2022/11/20 06:58:14;;;;;;;3.70;2.30;;;;;;;6.52;93.97;98396.28;1742825;81;21049;-79
2022/11/20 07:00:40;;;;;;;6.30;2.08;;;;;;;6.50;93.69;98393.72;1742787;81;21030;-78
2022/11/20 07:03:10;;;;;;;3.67;2.00;;;;;;;6.52;93.65;98396.28;1742946;81;21057;-78
2022/11/20 07:05:38;;;;;;;4.47;2.00;;;;;;;6.49;93.32;98395.91;1742878;81;21074;-77
2022/11/20 07:08:05;;;;;;;4.58;2.45;;;;;;;6.49;93.48;98407.53;1744382;81;20977;-78
2022/11/20 07:10:32;;;;;;;5.62;1.92;;;;;;;6.53;93.40;98405.74;1757033;81;21526;-77
2022/11/20 07:12:59;;;;;;;5.15;2.17;;;;;;;6.49;92.97;98401.52;1741794;81;21033;-78
2022/11/20 07:15:26;;;;;;;4.60;2.52;;;;;;;6.49;93.07;98391.20;1741592;81;21003;-78
2022/11/20 07:17:53;;;;;;;5.58;2.50;;;;;;;6.50;93.39;98387.72;1741653;81;21013;-79
2022/11/20 07:20:20;;;;;;;4.58;2.35;;;;;;;6.52;93.17;98384.21;1742126;81;21611;-77
2022/11/20 07:22:46;;;;;;;6.28;2.52;;;;;;;6.55;93.52;98393.20;1741799;81;21558;-78
2022/11/20 07:25:13;;;;;;;6.58;2.65;;;;;;;6.62;93.73;98388.75;1742158;81;21028;-78
2022/11/20 07:27:40;;;;;;;4.50;2.20;;;;;;;6.71;93.83;98392.45;1741416;81;21058;-78
2022/11/20 07:30:07;;;;;;;5.67;2.47;;;;;;;6.82;93.93;98411.59;1749780;81;21330;-78
2022/11/20 07:32:34;;;;;;;3.72;2.05;;;;;;;6.89;93.61;98413.63;1742684;81;22384;-78
2022/11/20 07:35:00;;;;;;;4.33;2.27;;;;;;;6.95;93.28;98412.20;1748578;81;21016;-79
2022/11/20 07:37:27;;;;;;;3.70;2.10;;;;;;;7.02;92.40;98408.58;1746334;81;21017;-78
2022/11/20 07:39:53;;;;;;;5.30;2.10;;;;;;;7.10;93.48;98404.54;1742305;81;21513;-78
2022/11/20 07:42:19;;;;;;;4.62;2.50;;;;;;;7.14;92.66;98416.51;1742015;81;21049;-77
2022/11/20 07:44:47;;;;;;;7.33;3.20;;;;;;;7.20;92.70;98416.37;1741734;81;20986;-78
2022/11/20 07:47:13;;;;;;;9.88;4.42;;;;;;;7.29;92.89;98415.33;1741827;81;22335;-78
2022/11/20 07:49:40;;;;;;;10.23;5.10;;;;;;;7.36;92.84;98418.16;1743300;81;21037;-78
2022/11/20 07:52:06;;;;;;;11.65;5.33;;;;;;;7.37;92.22;98428.94;1742010;81;21054;-78
2022/11/20 07:54:33;;;;;;;5.58;3.12;;;;;;;7.41;92.23;98425.84;1741807;81;21870;-77
2022/11/20 07:56:59;;;;;;;6.55;3.40;;;;;;;7.47;92.33;98429.58;1742097;81;21121;-77
2022/11/20 07:59:26;;;;;;;10.50;5.75;;;;;;;7.45;91.91;98433.94;1741674;81;21025;-78
2022/11/20 08:01:52;;;;;;;14.30;6.85;;;;;;;7.49;91.87;98423.47;1742275;81;21090;-77
2022/11/20 08:04:18;;;;;;;8.60;4.35;;;;;;;7.50;91.27;98421.73;1741439;81;21014;-78
2022/11/20 08:06:45;;;;;;;8.48;4.42;;;;;;;7.55;91.50;98425.07;1745948;81;20980;-78
2022/11/20 08:09:12;;;;;;;8.98;4.17;;;;;;;7.55;91.49;98426.36;1751989;81;21026;-78
2022/11/20 08:14:23;;;;;;;8.53;4.10;;;;;;;7.61;91.53;98422.33;1718441;82;20999;-78
2022/11/20 08:16:50;;;;;;;9.35;4.30;;;;;;;7.62;90.92;98429.22;1742252;81;21019;-78
2022/11/20 08:19:18;;;;;;;7.42;3.65;;;;;;;7.67;91.14;98426.52;1742721;81;21070;-77
2022/11/20 08:21:45;;;;;;;9.03;4.58;;;;;;;7.69;90.63;98424.74;1742243;81;21029;-77
2022/11/20 08:24:12;;;;;;;7.58;3.83;;;;;;;7.68;90.83;98410.97;1742133;81;21109;-78
2022/11/20 08:26:40;;;;;;;7.28;4.22;;;;;;;7.76;90.87;98413.37;1742853;81;21577;-78
2022/11/20 08:29:07;;;;;;;7.72;3.70;;;;;;;7.80;90.72;98425.77;1742788;81;21458;-78
2022/11/20 08:31:34;;;;;;;9.15;3.75;;;;;;;7.83;90.60;98432.17;1742432;81;21033;-77
2022/11/20 08:34:02;;;;;;;6.10;3.58;;;;;;;7.88;90.29;98436.35;1741871;81;21046;-78
2022/11/20 08:36:29;;;;;;;4.72;2.98;;;;;;;7.88;90.69;98438.94;1741670;81;21058;-78
2022/11/20 08:38:56;;;;;;;8.60;3.65;;;;;;;7.96;90.66;98434.88;1714676;82;21025;-78
2022/11/20 08:41:26;;;;;;;21.35;7.97;;;;;;;7.99;90.54;98436.07;1741435;81;21034;-77
2022/11/20 08:43:57;;;;;;;6.80;3.92;;;;;;;8.06;90.05;98428.56;1742243;81;20998;-78
2022/11/20 08:46:26;;;;;;;10.70;5.12;;;;;;;8.19;90.57;98436.02;1741573;81;21440;-78
2022/11/20 08:48:53;;;;;;;8.23;4.05;;;;;;;8.21;90.42;98438.95;1743208;81;21009;-78
2022/11/20 08:51:20;;;;;;;9.60;5.30;;;;;;;8.30;89.96;98446.95;1742831;81;21538;-79
2022/11/20 08:53:48;;;;;;;7.35;4.08;;;;;;;8.38;90.38;98441.58;1742738;81;21042;-79
2022/11/20 08:56:15;;;;;;;8.55;4.00;;;;;;;8.39;89.92;98446.69;1742867;81;21030;-77
2022/11/20 08:58:42;;;;;;;7.33;3.98;;;;;;;8.39;89.49;98450.57;1742789;81;21014;-78
2022/11/20 09:01:08;;;;;;;7.70;3.67;;;;;;;8.46;89.53;98461.22;1742738;81;20967;-78
2022/11/20 09:03:35;;;;;;;5.80;3.20;;;;;;;8.39;89.00;98448.44;1742980;81;20999;-78
2022/11/20 09:06:05;;;;;;;6.42;3.50;;;;;;;8.41;88.93;98446.23;1742924;81;21507;-78
2022/11/20 09:08:32;;;;;;;5.60;3.30;;;;;;;8.42;88.61;98448.41;1754557;81;21489;-79
2022/11/20 09:10:59;;;;;;;5.92;3.17;;;;;;;8.42;87.72;98447.95;1754019;81;21098;-79
2022/11/20 09:13:28;;;;;;;8.50;3.55;;;;;;;8.43;87.15;98444.45;1740845;81;20991;-79
2022/11/20 09:16:01;;;;;;;5.72;2.90;;;;;;;8.46;87.87;98448.27;1743103;81;20982;-77
2022/11/20 09:18:31;;;;;;;5.65;3.05;;;;;;;8.42;87.04;98450.54;1743096;81;21069;-76
2022/11/20 09:20:59;;;;;;;5.45;2.95;;;;;;;8.39;87.33;98461.39;1740648;81;21877;-77
2022/11/20 09:23:27;;;;;;;6.72;3.33;;;;;;;8.33;86.82;98457.21;1739376;81;20992;-77
2022/11/20 09:25:55;;;;;;;9.13;4.45;;;;;;;8.30;86.58;98458.61;1715573;82;20991;-76
2022/11/20 09:28:22;;;;;;;7.85;3.85;;;;;;;8.30;86.44;98467.22;1725320;82;20963;-77
2022/11/20 09:30:48;;;;;;;5.83;3.50;;;;;;;8.31;86.32;98450.77;1711587;83;21511;-77
2022/11/20 09:33:15;;;;;;;5.33;2.33;;;;;;;8.34;87.01;98449.86;1712296;83;20971;-76
2022/11/20 09:35:43;;;;;;;5.70;2.92;;;;;;;8.39;86.97;98462.69;1711691;83;20991;-77
2022/11/20 09:38:12;;;;;;;4.83;2.30;;;;;;;8.45;87.43;98452.19;1666573;84;21062;-78
2022/11/20 09:40:49;;;;;;;5.62;2.52;;;;;;;8.45;86.38;98440.08;1684929;84;21083;-78
2022/11/20 09:43:44;;;;;;;4.75;2.60;;;;;;;8.49;86.34;98439.55;1711363;83;21018;-78
2022/11/20 09:46:19;;;;;;;5.80;2.90;;;;;;;8.60;87.49;98430.21;1707028;83;21046;-79
2022/11/20 09:48:51;;;;;;;5.75;2.98;;;;;;;8.60;87.21;98427.17;1722295;83;21018;-78
2022/11/20 09:51:38;;;;;;;5.22;2.62;;;;;;;8.61;86.35;98433.19;1711941;83;22363;-78
2022/11/20 09:54:12;;;;;;;7.03;3.00;;;;;;;8.61;86.43;98431.89;1717071;83;21595;-78
2022/11/20 09:56:44;;;;;;;6.58;3.22;;;;;;;8.69;86.51;98431.23;1710474;83;21074;-78
2022/11/20 09:59:40;;;;;;;7.55;3.00;;;;;;;8.75;86.99;98425.45;1710744;83;21065;-80
2022/11/20 10:02:18;;;;;;;7.55;2.87;;;;;;;8.83;87.53;98430.39;1692635;83;20983;-79
2022/11/20 10:05:05;;;;;;;5.20;2.75;;;;;;;8.84;86.54;98428.67;1715358;83;21553;-79
2022/11/20 10:08:25;;;;;;;4.80;2.72;;;;;;;8.86;85.85;98431.61;1701005;83;21046;-78
2022/11/20 10:11:09;;;;;;;5.42;2.95;;;;;;;8.88;85.86;98437.59;1707545;83;21006;-79
2022/11/20 10:14:09;;;;;;;7.08;3.10;;;;;;;8.90;85.28;98424.59;1707241;83;21078;-79
2022/11/20 10:16:49;;;;;;;5.78;3.42;;;;;;;8.98;85.83;98417.90;1721447;82;21066;-78
2022/11/20 10:19:30;;;;;;;7.75;3.62;;;;;;;8.99;84.54;98411.34;1721718;81;21559;-79
2022/11/20 10:22:33;;;;;;;6.00;3.70;;;;;;;9.02;84.67;98411.73;1684547;83;21046;-78
2022/11/20 10:25:28;;;;;;;6.35;3.70;;;;;;;9.06;84.51;98410.73;1715827;81;21037;-79
2022/11/20 10:28:19;;;;;;;7.03;3.80;;;;;;;9.10;84.78;98418.83;1737213;82;21102;-79
2022/11/20 10:30:50;;;;;;;5.95;3.35;;;;;;;9.15;85.07;98419.09;1737090;82;21530;-79
2022/11/20 10:33:24;;;;;;;6.65;3.33;;;;;;;9.17;84.25;98424.21;1736111;82;21113;-79
2022/11/20 10:36:03;;;;;;;;;;;;;;;9.18;84.99;98419.44;1740420;82;21014;-78
2022/11/20 10:38:41;;;;;;;6.33;3.40;;;;;;;9.11;84.15;98413.60;1738540;82;20459;-77
2022/11/20 10:41:25;;;;;;;7.17;4.15;;;;;;;9.08;84.12;98410.24;1738583;82;21499;-78
2022/11/20 10:47:17;;;;;;;7.30;3.62;;;;;;;9.10;84.37;98405.86;1739076;82;21082;-77
2022/11/20 10:49:51;;;;;;;6.33;3.40;;;;;;;9.16;84.66;98390.11;1738165;82;20991;-77
2022/11/20 10:52:29;;;;;;;5.58;2.83;;;;;;;9.18;83.53;98404.34;1736526;82;21082;-78
2022/11/20 10:55:19;;;;;;;11.03;6.17;;;;;;;9.15;84.57;98400.06;1736784;81;21324;-79
2022/11/20 10:58:14;;;;;;;11.35;5.28;;;;;;;9.16;84.07;98403.08;1692534;81;21036;-80
2022/11/20 11:00:42;;;;;;;10.25;3.98;;;;;;;9.21;83.98;98398.62;1716585;82;21029;-80
2022/11/20 11:03:27;;;;;;;10.48;5.00;;;;;;;9.30;85.32;98391.83;1697591;83;21091;-78
2022/11/20 11:06:24;;;;;;;7.47;3.05;;;;;;;9.30;84.10;98401.36;1727340;81;20986;-79
2022/11/20 11:08:53;;;;;;;5.00;2.62;;;;;;;9.39;84.43;98408.00;1709598;83;21022;-79
2022/11/20 11:11:28;;;;;;;6.15;3.17;;;;;;;9.46;84.97;98387.00;1709446;83;21009;-79
2022/11/20 11:14:11;;;;;;;7.03;3.75;;;;;;;9.52;84.46;98387.27;1708219;83;21046;-79
2022/11/20 11:16:51;;;;;;;5.65;3.33;;;;;;;9.55;84.44;98397.10;1715757;83;21051;-79
2022/11/20 11:19:17;;;;;;;9.63;4.22;;;;;;;9.47;84.03;98395.63;1725786;82;20995;-79
2022/11/20 11:21:54;;;;;;;5.45;3.45;;;;;;;9.45;83.96;98400.02;1709767;83;21554;-78
2022/11/20 11:24:27;;;;;;;6.20;3.30;;;;;;;9.50;83.67;98398.14;1724994;82;20994;-79
2022/11/20 11:27:04;;;;;;;5.08;3.17;;;;;;;9.46;82.65;98397.84;1712237;83;21064;-80
2022/11/20 11:29:30;;;;;;;5.60;2.87;;;;;;;9.51;81.91;98399.82;1713917;82;21002;-79
2022/11/20 11:32:15;;;;;;;8.35;3.20;;;;;;;9.41;80.85;98393.23;1706708;82;21463;-79
2022/11/20 11:34:42;;;;;;;4.85;3.10;;;;;;;9.40;82.30;98378.58;1712380;82;21026;-80
2022/11/20 11:37:24;;;;;;;5.80;3.35;;;;;;;9.40;82.47;98382.47;1702969;82;21060;-80
2022/11/20 11:39:51;;;;;;;5.80;3.17;;;;;;;9.36;81.85;98380.41;1740509;82;20963;-82
2022/11/20 11:42:19;;;;;;;5.20;2.85;;;;;;;9.36;82.07;98385.60;1701180;82;21423;-80
2022/11/20 11:45:06;;;;;;;6.42;3.30;;;;;;;9.42;82.42;98386.70;1692508;83;21089;-81
2022/11/20 11:47:44;;;;;;;6.12;3.20;;;;;;;9.45;82.45;98389.64;1725770;82;21025;-80
2022/11/20 11:50:21;;;;;;;6.55;3.95;;;;;;;9.47;82.51;98387.42;1707085;83;21038;-78
2022/11/20 11:53:11;;;;;;;5.55;3.08;;;;;;;9.47;81.70;98392.61;1730548;81;20985;-80
2022/11/20 11:55:48;;;;;;;11.93;6.28;;;;;;;9.55;82.35;98394.96;1725485;83;21017;-81
2022/11/20 11:58:22;;;;;;;8.88;3.67;;;;;;;9.59;81.80;98391.37;1694757;83;21063;-81
2022/11/20 12:01:16;;;;;;;6.35;3.20;;;;;;;9.61;81.11;98396.48;1681145;84;20989;-80
2022/11/20 12:03:51;;;;;;;5.62;3.30;;;;;;;9.57;81.48;98403.55;1698760;82;21089;-78
2022/11/20 12:06:17;;;;;;;7.90;3.27;;;;;;;9.60;81.49;98409.92;1709102;83;21343;-78
2022/11/20 12:08:55;;;;;;;5.90;3.25;;;;;;;9.65;81.90;98403.27;1696757;83;21572;-79
2022/11/20 12:11:44;;;;;;;12.33;3.42;;;;;;;9.66;81.84;98403.23;1697753;83;20999;-79